Time;durP1;ratioP1;P1;durP2;ratioP2;P2;SDS_P1;SDS_P2;PMS_P1;PMS_P2;Temp;Humidity;BMP_temperature;BMP_pressure;BME280_temperature;BME280_humidity;BME280_pressure;Samples;Min_cycle;Max_cycle;Signal;HPM_P1;HPM_P2
2021/04/25 00:01:29;;;;;;;9.75;4.30;;;9.10;1.00;;;;;;5110755;28;20056;-74
2021/04/25 00:03:57;;;;;;;7.70;4.20;;;9.00;1.00;;;;;;5110973;28;20143;-77
2021/04/25 00:06:23;;;;;;;8.75;4.05;;;9.00;1.00;;;;;;5113501;28;20070;-74
2021/04/25 00:08:50;;;;;;;7.88;3.90;;;8.90;1.00;;;;;;5110106;28;20049;-74
2021/04/25 00:11:17;;;;;;;8.75;3.88;;;8.90;1.00;;;;;;5106478;28;20047;-74
2021/04/25 00:13:44;;;;;;;6.80;4.35;;;8.90;1.00;;;;;;5108597;28;20051;-74
2021/04/25 00:16:14;;;;;;;9.25;4.13;;;8.80;1.00;;;;;;5110072;28;20048;-74
2021/04/25 00:18:41;;;;;;;6.95;4.32;;;8.80;1.00;;;;;;5107593;28;20051;-73
2021/04/25 00:21:11;;;;;;;8.07;4.25;;;8.80;1.00;;;;;;5107725;28;20076;-75
2021/04/25 00:23:38;;;;;;;10.40;4.68;;;8.80;1.00;;;;;;5103444;28;20051;-74
2021/04/25 00:26:05;;;;;;;9.40;4.05;;;8.70;1.00;;;;;;5107024;28;20065;-75
2021/04/25 00:28:32;;;;;;;8.75;3.63;;;8.70;1.00;;;;;;5109952;28;20097;-75
2021/04/25 00:30:59;;;;;;;7.88;3.92;;;8.70;1.00;;;;;;5107614;28;20052;-74
2021/04/25 00:33:26;;;;;;;6.82;4.25;;;8.60;1.00;;;;;;5101803;28;20051;-74
2021/04/25 00:35:52;;;;;;;5.78;3.80;;;8.60;1.00;;;;;;5112028;28;20051;-73
2021/04/25 00:38:20;;;;;;;7.53;4.43;;;8.60;1.00;;;;;;5109011;28;20047;-73
2021/04/25 00:40:47;;;;;;;8.05;4.35;;;8.50;1.00;;;;;;5107063;28;20523;-74
2021/04/25 00:43:14;;;;;;;6.95;3.92;;;8.50;1.00;;;;;;5104302;28;20051;-74
2021/04/25 00:45:40;;;;;;;7.20;3.60;;;8.50;1.00;;;;;;5109138;28;20059;-76
2021/04/25 00:48:07;;;;;;;9.02;4.47;;;8.50;1.00;;;;;;5106195;28;20052;-74
2021/04/25 00:50:34;;;;;;;8.32;3.95;;;8.40;1.00;;;;;;5105233;28;20083;-75
2021/04/25 00:53:02;;;;;;;10.68;3.90;;;8.40;1.00;;;;;;5100959;28;20051;-75
2021/04/25 00:55:32;;;;;;;6.43;4.18;;;8.40;1.00;;;;;;5105379;28;20501;-75
2021/04/25 00:58:01;;;;;;;7.82;4.18;;;8.30;1.00;;;;;;5104977;28;20055;-74
2021/04/25 01:00:28;;;;;;;8.70;4.28;;;8.20;1.00;;;;;;5103378;28;20048;-75
2021/04/25 01:03:01;;;;;;;7.85;4.03;;;8.30;1.00;;;;;;5100447;28;20059;-75
2021/04/25 01:05:28;;;;;;;7.88;3.95;;;8.20;1.00;;;;;;5103126;28;20059;-74
2021/04/25 01:07:55;;;;;;;8.55;4.68;;;8.20;1.00;;;;;;5104351;28;20420;-76
2021/04/25 01:10:22;;;;;;;12.10;4.40;;;8.10;1.00;;;;;;5103613;28;20055;-76
2021/04/25 01:12:50;;;;;;;9.00;4.93;;;8.10;1.00;;;;;;5100038;28;20417;-76
2021/04/25 01:15:18;;;;;;;7.95;4.35;;;8.10;1.00;;;;;;5101694;28;20520;-75
2021/04/25 01:17:46;;;;;;;7.65;4.72;;;8.10;1.00;;;;;;5105863;28;20450;-75
2021/04/25 01:20:16;;;;;;;8.35;4.18;;;8.10;1.00;;;;;;5104493;28;20498;-75
2021/04/25 01:22:44;;;;;;;6.63;3.92;;;8.00;1.00;;;;;;5101768;28;20039;-75
2021/04/25 01:25:13;;;;;;;10.00;4.85;;;8.10;1.00;;;;;;5105807;28;20417;-75
2021/04/25 01:27:40;;;;;;;9.73;5.15;;;8.00;1.00;;;;;;5105883;28;20052;-75
2021/04/25 01:30:10;;;;;;;10.50;5.15;;;7.90;1.00;;;;;;5105230;28;20052;-75
2021/04/25 01:32:39;;;;;;;8.98;4.18;;;7.90;1.00;;;;;;5103159;28;20055;-74
2021/04/25 01:35:07;;;;;;;9.10;4.25;;;7.90;1.00;;;;;;5104837;28;20060;-74
2021/04/25 01:37:34;;;;;;;8.00;4.38;;;7.90;1.00;;;;;;5104120;27;20150;-75
2021/04/25 01:40:03;;;;;;;9.80;5.50;;;7.80;1.00;;;;;;5101245;28;20767;-75
2021/04/25 01:42:30;;;;;;;8.98;4.18;;;7.70;1.00;;;;;;5100402;28;20044;-74
2021/04/25 01:44:57;;;;;;;7.30;4.43;;;7.70;1.00;;;;;;5105082;28;20048;-75
2021/04/25 01:47:24;;;;;;;10.60;4.55;;;7.70;1.00;;;;;;5107848;28;20052;-73
2021/04/25 01:49:51;;;;;;;9.30;4.60;;;7.70;1.00;;;;;;5106920;28;20048;-74
2021/04/25 01:52:18;;;;;;;8.07;5.05;;;7.60;1.00;;;;;;5102662;28;20214;-74
2021/04/25 01:54:45;;;;;;;8.55;5.18;;;7.60;1.00;;;;;;5105203;28;20052;-74
2021/04/25 01:57:13;;;;;;;9.40;4.88;;;7.60;1.00;;;;;;5106815;28;20054;-75
2021/04/25 01:59:39;;;;;;;10.75;5.03;;;7.60;1.00;;;;;;5108386;28;20050;-74
2021/04/25 02:02:06;;;;;;;11.15;5.10;;;7.50;1.00;;;;;;5105738;28;20432;-73
2021/04/25 02:04:33;;;;;;;10.93;5.03;;;7.50;1.00;;;;;;5106851;28;20050;-73
2021/04/25 02:07:01;;;;;;;9.23;4.82;;;7.50;1.00;;;;;;5107508;28;20048;-73
2021/04/25 02:09:27;;;;;;;10.90;5.05;;;7.50;1.00;;;;;;5104648;27;20417;-74
2021/04/25 02:11:54;;;;;;;9.05;5.18;;;7.40;1.00;;;;;;5102673;28;20051;-73
2021/04/25 02:14:22;;;;;;;8.27;4.47;;;7.40;1.00;;;;;;5104749;28;20047;-74
2021/04/25 02:16:49;;;;;;;9.35;5.05;;;7.40;1.00;;;;;;5103831;28;20497;-73
2021/04/25 02:19:16;;;;;;;10.13;4.97;;;7.40;1.00;;;;;;5107012;28;20043;-75
2021/04/25 02:21:43;;;;;;;11.23;5.20;;;7.30;1.00;;;;;;5102085;28;20051;-76
2021/04/25 02:24:10;;;;;;;8.38;4.72;;;7.30;1.00;;;;;;5103821;28;20043;-74
2021/04/25 02:26:37;;;;;;;7.97;4.47;;;7.30;1.00;;;;;;5107924;28;20058;-74
2021/04/25 02:29:04;;;;;;;9.57;5.32;;;7.20;1.00;;;;;;5103103;28;20047;-73
2021/04/25 02:31:31;;;;;;;11.57;4.70;;;7.30;1.00;;;;;;5102848;28;20504;-74
2021/04/25 02:33:58;;;;;;;8.82;5.10;;;7.30;1.00;;;;;;5106103;28;20502;-74
2021/04/25 02:36:26;;;;;;;9.32;5.20;;;7.20;1.00;;;;;;5109271;28;20143;-73
2021/04/25 02:38:53;;;;;;;8.13;4.30;;;7.10;1.00;;;;;;5105683;28;20040;-74
2021/04/25 02:41:20;;;;;;;10.60;4.97;;;7.10;1.00;;;;;;5107327;28;20048;-73
2021/04/25 02:43:47;;;;;;;8.82;4.93;;;7.10;1.00;;;;;;5104823;28;20040;-73
2021/04/25 02:46:14;;;;;;;6.75;4.72;;;7.00;1.00;;;;;;5106878;28;20505;-74
2021/04/25 02:48:42;;;;;;;7.53;5.05;;;7.00;1.00;;;;;;5105080;28;20063;-74
2021/04/25 02:51:09;;;;;;;7.72;4.90;;;6.90;1.00;;;;;;5105172;28;20146;-73
2021/04/25 02:53:36;;;;;;;12.85;5.20;;;6.90;1.00;;;;;;5103507;28;20054;-74
2021/04/25 02:56:04;;;;;;;10.07;5.10;;;7.00;1.00;;;;;;5105666;28;20421;-74
2021/04/25 02:58:31;;;;;;;10.52;5.25;;;6.90;1.00;;;;;;5105755;28;20047;-75
2021/04/25 03:00:58;;;;;;;10.00;4.90;;;6.90;1.00;;;;;;5105999;28;20043;-73
2021/04/25 03:03:25;;;;;;;11.43;5.10;;;6.80;1.00;;;;;;5100507;28;20048;-73
2021/04/25 03:05:55;;;;;;;8.05;4.95;;;6.70;1.00;;;;;;5102812;28;20040;-72
2021/04/25 03:08:23;;;;;;;9.70;4.90;;;6.70;1.00;;;;;;5106960;28;20051;-75
2021/04/25 03:10:50;;;;;;;8.23;5.05;;;6.70;1.00;;;;;;5109472;28;20057;-73
2021/04/25 03:13:17;;;;;;;8.15;4.60;;;6.60;1.00;;;;;;5103361;28;20043;-74
2021/04/25 03:15:44;;;;;;;7.15;4.75;;;6.60;1.00;;;;;;5108743;27;20489;-73
2021/04/25 03:18:11;;;;;;;8.15;4.82;;;6.60;1.00;;;;;;5105580;28;20044;-73
2021/04/25 03:20:38;;;;;;;8.10;4.65;;;6.60;1.00;;;;;;5106844;28;20086;-74
2021/04/25 03:23:06;;;;;;;8.77;5.18;;;6.50;1.00;;;;;;5099649;28;20051;-74
2021/04/25 03:25:33;;;;;;;11.20;5.97;;;6.50;1.00;;;;;;5105153;28;20130;-74
2021/04/25 03:28:00;;;;;;;10.75;5.40;;;6.50;1.00;;;;;;5102521;28;20052;-74
2021/04/25 03:30:27;;;;;;;8.50;5.30;;;6.40;1.00;;;;;;5104315;28;20043;-74
2021/04/25 03:32:54;;;;;;;10.20;4.78;;;6.40;1.00;;;;;;5102898;28;20040;-73
2021/04/25 03:35:21;;;;;;;10.10;5.40;;;6.30;1.00;;;;;;5105914;28;20140;-74
2021/04/25 03:37:48;;;;;;;11.77;5.50;;;6.30;1.00;;;;;;5107365;28;20416;-73
2021/04/25 03:40:19;;;;;;;9.18;5.25;;;6.30;1.00;;;;;;5106166;28;20169;-74
2021/04/25 03:42:46;;;;;;;13.95;5.50;;;6.20;1.00;;;;;;5100694;28;20147;-73
2021/04/25 03:45:14;;;;;;;13.95;5.90;;;6.30;1.00;;;;;;5104033;28;20059;-72
2021/04/25 03:47:42;;;;;;;8.98;5.20;;;6.20;1.00;;;;;;5107823;28;20058;-74
2021/04/25 03:50:10;;;;;;;8.95;5.32;;;6.20;1.00;;;;;;5101677;28;20051;-73
2021/04/25 03:52:37;;;;;;;9.73;5.53;;;6.10;1.00;;;;;;5103162;28;20040;-73
2021/04/25 03:55:05;;;;;;;7.93;5.57;;;6.10;1.00;;;;;;5105730;28;20154;-73
2021/04/25 03:57:33;;;;;;;9.45;5.22;;;6.10;1.00;;;;;;5107684;28;20048;-73
2021/04/25 04:00:00;;;;;;;9.85;5.43;;;6.00;1.00;;;;;;5100614;28;20047;-73
2021/04/25 04:02:27;;;;;;;9.15;5.32;;;6.00;1.00;;;;;;5103112;28;20122;-74
2021/04/25 04:04:54;;;;;;;8.57;5.47;;;6.00;1.00;;;;;;5107335;28;20047;-73
2021/04/25 04:07:21;;;;;;;13.20;5.72;;;6.00;1.00;;;;;;5102441;28;20126;-73
2021/04/25 04:09:48;;;;;;;8.27;5.80;;;6.00;1.00;;;;;;5107359;28;20126;-73
2021/04/25 04:12:15;;;;;;;9.23;5.10;;;6.00;1.00;;;;;;5101299;28;20485;-74
2021/04/25 04:14:43;;;;;;;9.60;5.75;;;5.90;1.00;;;;;;5106519;28;20560;-73
2021/04/25 04:17:10;;;;;;;11.10;5.22;;;6.00;1.00;;;;;;5107372;28;20563;-73
2021/04/25 04:19:37;;;;;;;9.48;6.00;;;5.90;1.00;;;;;;5106247;28;20044;-74
2021/04/25 04:22:04;;;;;;;13.77;7.10;;;5.90;1.00;;;;;;5103185;28;20081;-74
2021/04/25 04:24:30;;;;;;;15.43;7.18;;;5.90;1.00;;;;;;5104662;28;20048;-74
2021/04/25 04:26:57;;;;;;;10.65;6.32;;;5.90;1.00;;;;;;5107397;28;20047;-74
2021/04/25 04:29:24;;;;;;;10.60;6.00;;;5.90;1.00;;;;;;5107456;28;20050;-74
2021/04/25 04:31:52;;;;;;;8.93;6.07;;;5.90;1.00;;;;;;5105394;28;20048;-73
2021/04/25 04:34:19;;;;;;;9.40;5.93;;;6.30;1.00;;;;;;5105056;28;20044;-74
2021/04/25 04:36:46;;;;;;;11.77;6.05;;;6.70;1.00;;;;;;5108325;28;20127;-74
2021/04/25 04:39:12;;;;;;;11.70;5.90;;;7.10;1.00;;;;;;5109245;28;20051;-74
2021/04/25 04:41:39;;;;;;;14.38;6.15;;;7.30;1.00;;;;;;5108398;28;20054;-74
2021/04/25 04:44:06;;;;;;;8.80;5.40;;;7.30;1.00;;;;;;5107257;28;20059;-74
2021/04/25 04:46:34;;;;;;;11.35;5.93;;;7.80;1.00;;;;;;5108116;28;20402;-75
2021/04/25 04:49:02;;;;;;;10.18;5.70;;;8.20;1.00;;;;;;5107164;28;20467;-74
2021/04/25 04:51:29;;;;;;;12.07;5.57;;;8.60;1.00;;;;;;5108471;28;20139;-74
2021/04/25 04:53:56;;;;;;;9.00;5.53;;;8.60;1.00;;;;;;5107506;28;20420;-74
2021/04/25 04:56:23;;;;;;;11.68;5.95;;;8.70;1.00;;;;;;5109343;28;20503;-74
2021/04/25 04:58:49;;;;;;;13.15;6.43;;;8.90;1.00;;;;;;5105926;28;20048;-74
2021/04/25 05:01:16;;;;;;;9.90;5.05;;;9.10;1.00;;;;;;5108774;28;20501;-77
2021/04/25 05:03:43;;;;;;;12.32;6.00;;;9.30;1.00;;;;;;5108025;28;20046;-74
2021/04/25 05:06:11;;;;;;;13.05;5.40;;;9.90;1.00;;;;;;5110340;28;20052;-74
2021/04/25 05:08:38;;;;;;;8.80;5.50;;;10.10;1.00;;;;;;5108348;28;20043;-75
2021/04/25 05:11:04;;;;;;;9.68;5.90;;;9.60;1.00;;;;;;5104475;28;20047;-74
2021/04/25 05:13:31;;;;;;;10.32;5.60;;;9.00;1.00;;;;;;5103134;28;20047;-74
2021/04/25 05:15:58;;;;;;;8.55;5.35;;;9.50;1.00;;;;;;5105116;28;20044;-73
2021/04/25 05:18:25;;;;;;;6.93;5.35;;;9.90;1.00;;;;;;5108847;28;20051;-73
2021/04/25 05:20:52;;;;;;;9.25;5.70;;;10.00;1.00;;;;;;5104733;28;20058;-73
2021/04/25 05:23:20;;;;;;;10.02;5.40;;;10.20;1.00;;;;;;5103894;28;20350;-74
2021/04/25 05:25:47;;;;;;;10.07;5.78;;;10.20;1.00;;;;;;5109918;28;20592;-74
2021/04/25 05:28:13;;;;;;;9.70;5.45;;;10.70;1.00;;;;;;5103944;28;20048;-74
2021/04/25 05:30:40;;;;;;;9.00;5.53;;;10.90;1.00;;;;;;5109470;28;20548;-75
2021/04/25 05:33:08;;;;;;;9.73;5.18;;;10.60;1.00;;;;;;5103878;28;20497;-74
2021/04/25 05:35:35;;;;;;;9.70;5.22;;;11.40;1.00;;;;;;5107512;28;20070;-74
2021/04/25 05:38:02;;;;;;;9.73;5.53;;;9.60;1.00;;;;;;5104657;28;20052;-74
2021/04/25 05:40:29;;;;;;;8.02;5.35;;;10.20;1.00;;;;;;5107243;28;20053;-73
2021/04/25 05:42:57;;;;;;;12.80;6.60;;;9.10;1.00;;;;;;5101116;28;20060;-74
2021/04/25 05:45:24;;;;;;;12.20;6.75;;;8.20;1.00;;;;;;5103840;28;20115;-74
2021/04/25 05:47:53;;;;;;;10.38;6.30;;;8.10;1.00;;;;;;5105974;28;20058;-74
2021/04/25 05:50:21;;;;;;;11.25;6.50;;;8.00;1.00;;;;;;5107706;28;20050;-74
2021/04/25 05:52:49;;;;;;;12.18;6.65;;;7.90;1.00;;;;;;5107241;28;20039;-75
2021/04/25 05:55:16;;;;;;;13.02;6.25;;;7.80;1.00;;;;;;5106009;28;20047;-74
2021/04/25 05:57:44;;;;;;;11.02;6.10;;;7.70;1.00;;;;;;5111634;28;20054;-73
2021/04/25 06:00:15;;;;;;;10.30;6.35;;;7.90;1.00;;;;;;5106946;28;20044;-74
2021/04/25 06:02:42;;;;;;;14.45;7.03;;;8.00;1.00;;;;;;5104091;28;20043;-74
2021/04/25 06:05:10;;;;;;;9.65;6.93;;;8.10;1.00;;;;;;5103933;28;20048;-73
2021/04/25 06:07:37;;;;;;;13.60;7.18;;;7.80;1.00;;;;;;5109280;28;20046;-72
2021/04/25 06:10:05;;;;;;;14.95;6.93;;;7.90;1.00;;;;;;5105602;28;20065;-74
2021/04/25 06:12:32;;;;;;;13.15;7.10;;;8.20;1.00;;;;;;5104597;28;20047;-73
2021/04/25 06:15:04;;;;;;;11.75;6.75;;;8.40;1.00;;;;;;5107296;28;20203;-73
2021/04/25 06:17:30;;;;;;;10.25;6.82;;;8.60;1.00;;;;;;5104165;28;20058;-75
2021/04/25 06:19:58;;;;;;;15.00;7.55;;;8.40;1.00;;;;;;5108208;28;20063;-74
2021/04/25 06:22:24;;;;;;;11.73;7.18;;;8.00;1.00;;;;;;5105361;28;20501;-73
2021/04/25 06:24:54;;;;;;;14.85;7.20;;;8.20;1.00;;;;;;5106510;28;20043;-74
2021/04/25 06:27:22;;;;;;;12.13;7.28;;;8.60;1.00;;;;;;5108104;28;20052;-74
2021/04/25 06:29:49;;;;;;;11.23;7.00;;;8.50;1.00;;;;;;5107057;28;20047;-74
2021/04/25 06:32:16;;;;;;;12.00;7.22;;;8.70;1.00;;;;;;5104171;28;20056;-74
2021/04/25 06:34:43;;;;;;;15.68;7.88;;;9.00;1.00;;;;;;5106123;28;20074;-74
2021/04/25 06:37:10;;;;;;;10.77;7.13;;;8.80;1.00;;;;;;5105316;28;20716;-74
2021/04/25 06:39:37;;;;;;;29.80;8.20;;;8.90;1.00;;;;;;5104149;28;20062;-73
2021/04/25 06:42:04;;;;;;;11.15;7.30;;;9.00;1.00;;;;;;5104020;28;20051;-74
2021/04/25 06:44:32;;;;;;;12.40;8.20;;;9.20;1.00;;;;;;5103272;28;20116;-74
2021/04/25 06:46:59;;;;;;;13.23;8.13;;;8.90;1.00;;;;;;5105878;28;20043;-73
2021/04/25 06:49:28;;;;;;;12.77;7.68;;;9.20;1.00;;;;;;5107011;28;20487;-74
2021/04/25 06:51:55;;;;;;;14.18;8.25;;;9.00;1.00;;;;;;5106234;28;20538;-74
2021/04/25 06:54:23;;;;;;;16.52;8.52;;;9.10;1.00;;;;;;5106177;28;20062;-74
2021/04/25 06:56:50;;;;;;;13.90;8.43;;;9.40;1.00;;;;;;5106213;28;20505;-73
2021/04/25 06:59:17;;;;;;;12.65;8.13;;;9.50;1.00;;;;;;5104900;28;20044;-73
2021/04/25 07:01:44;;;;;;;15.25;9.00;;;9.40;1.00;;;;;;5106283;28;20096;-74
2021/04/25 07:04:11;;;;;;;12.55;8.20;;;9.00;1.00;;;;;;5105286;28;20051;-75
2021/04/25 07:06:39;;;;;;;18.73;9.10;;;9.50;1.00;;;;;;5105809;28;20138;-75
2021/04/25 07:09:06;;;;;;;14.27;8.93;;;9.70;1.00;;;;;;5107381;28;20055;-74
2021/04/25 07:11:33;;;;;;;17.52;8.82;;;10.00;1.00;;;;;;5105676;28;20094;-74
2021/04/25 07:14:00;;;;;;;15.98;9.25;;;9.80;1.00;;;;;;5105287;28;20040;-74
2021/04/25 07:16:26;;;;;;;16.90;10.13;;;9.90;1.00;;;;;;5107651;28;20055;-75
2021/04/25 07:18:53;;;;;;;13.85;8.98;;;9.70;1.00;;;;;;5107555;28;20043;-75
2021/04/25 07:21:21;;;;;;;17.27;9.20;;;9.90;1.00;;;;;;5103997;28;20510;-75
2021/04/25 07:23:48;;;;;;;15.05;8.75;;;9.60;1.00;;;;;;5104166;28;20050;-74
2021/04/25 07:26:15;;;;;;;12.00;8.43;;;9.80;1.00;;;;;;5105737;28;20074;-75
2021/04/25 07:28:42;;;;;;;17.35;9.75;;;10.60;1.00;;;;;;5109185;28;20126;-75
2021/04/25 07:31:10;;;;;;;15.85;10.00;;;10.60;1.00;;;;;;5100253;28;20130;-75
2021/04/25 07:33:37;;;;;;;16.23;8.88;;;10.30;1.00;;;;;;5102503;28;20050;-74
2021/04/25 07:36:08;;;;;;;18.35;9.80;;;10.50;1.00;;;;;;5106095;28;20493;-74
2021/04/25 07:38:36;;;;;;;17.50;9.80;;;10.70;1.00;;;;;;5107145;28;20123;-74
2021/04/25 07:41:05;;;;;;;16.73;10.70;;;10.40;1.00;;;;;;5107116;28;20394;-73
2021/04/25 07:43:32;;;;;;;17.27;10.30;;;10.50;1.00;;;;;;5103462;28;20048;-74
2021/04/25 07:45:59;;;;;;;16.85;10.38;;;10.90;1.00;;;;;;5106703;28;20044;-73
2021/04/25 07:48:26;;;;;;;20.25;10.27;;;11.10;1.00;;;;;;5104714;28;20394;-74
2021/04/25 07:50:53;;;;;;;15.10;10.25;;;11.20;1.00;;;;;;5102016;28;20047;-73
2021/04/25 07:53:20;;;;;;;15.90;10.90;;;10.80;1.00;;;;;;5099554;28;20139;-74
2021/04/25 07:55:47;;;;;;;17.08;10.88;;;10.80;1.00;;;;;;5106328;28;20054;-73
2021/04/25 07:58:15;;;;;;;17.10;10.07;;;10.80;1.00;;;;;;5104914;28;20048;-75
2021/04/25 08:00:41;;;;;;;19.00;10.57;;;11.20;1.00;;;;;;5102982;28;20047;-73
2021/04/25 08:03:08;;;;;;;15.23;10.55;;;11.00;1.00;;;;;;5099341;28;20048;-75
2021/04/25 08:05:35;;;;;;;16.25;10.85;;;10.70;1.00;;;;;;5108032;28;20118;-74
2021/04/25 08:08:03;;;;;;;17.65;10.98;;;10.80;1.00;;;;;;5106948;28;20051;-75
2021/04/25 08:10:30;;;;;;;16.42;10.88;;;11.00;1.00;;;;;;5104903;28;20049;-73
2021/04/25 08:12:57;;;;;;;15.30;11.38;;;11.00;1.00;;;;;;5106932;28;20147;-76
2021/04/25 08:15:25;;;;;;;17.85;11.48;;;10.90;1.00;;;;;;5105577;28;20044;-75
2021/04/25 08:17:52;;;;;;;16.17;10.93;;;11.20;1.00;;;;;;5106583;28;20416;-75
2021/04/25 08:20:19;;;;;;;16.38;10.60;;;11.00;1.00;;;;;;5107328;28;20055;-74
2021/04/25 08:22:46;;;;;;;15.93;10.57;;;10.70;1.00;;;;;;5104181;28;20501;-73
2021/04/25 08:25:13;;;;;;;21.55;11.57;;;10.90;1.00;;;;;;5107067;28;20130;-73
2021/04/25 08:27:40;;;;;;;18.05;10.93;;;11.10;1.00;;;;;;5107756;28;20045;-75
2021/04/25 08:30:08;;;;;;;15.73;10.63;;;11.40;1.00;;;;;;5106793;28;20062;-74
2021/04/25 08:32:36;;;;;;;18.20;10.43;;;11.80;1.00;;;;;;5101571;28;20059;-74
2021/04/25 08:35:04;;;;;;;15.30;10.38;;;11.60;1.00;;;;;;5105541;28;20512;-74
2021/04/25 08:37:31;;;;;;;15.73;10.57;;;11.90;1.00;;;;;;5107767;28;20054;-75
2021/04/25 08:39:58;;;;;;;15.82;9.65;;;11.70;1.00;;;;;;5106060;28;20044;-75
2021/04/25 08:42:25;;;;;;;15.23;10.23;;;12.00;1.00;;;;;;5105847;27;20361;-75
2021/04/25 08:44:54;;;;;;;14.82;9.93;;;12.10;1.00;;;;;;5105309;28;20039;-76
2021/04/25 08:47:23;;;;;;;14.35;9.85;;;12.30;1.00;;;;;;5105676;28;20047;-74
2021/04/25 08:49:52;;;;;;;15.60;9.73;;;12.10;1.00;;;;;;5104867;28;20532;-74
2021/04/25 08:52:22;;;;;;;14.45;9.90;;;12.10;1.00;;;;;;5105337;28;20428;-74
2021/04/25 08:54:49;;;;;;;15.32;9.98;;;11.90;1.00;;;;;;5105679;28;20046;-74
2021/04/25 08:57:16;;;;;;;19.48;11.15;;;11.70;1.00;;;;;;5107165;28;20044;-74
2021/04/25 08:59:43;;;;;;;14.93;9.73;;;11.60;1.00;;;;;;5104192;28;20052;-75
2021/04/25 09:02:09;;;;;;;16.15;9.98;;;12.30;1.00;;;;;;5104186;28;20054;-75
2021/04/25 09:04:36;;;;;;;15.25;10.13;;;11.80;1.00;;;;;;5104950;28;20050;-75
2021/04/25 09:07:06;;;;;;;16.90;9.80;;;12.40;1.00;;;;;;5106722;28;20052;-75
2021/04/25 09:09:47;;;;;;;15.18;8.75;;;12.60;1.00;;;;;;5109107;28;20070;-75
2021/04/25 09:12:31;;;;;;;17.83;8.85;;;12.50;1.00;;;;;;5103926;28;20052;-74
2021/04/25 09:14:58;;;;;;;12.55;8.40;;;12.20;1.00;;;;;;5105493;28;20047;-75
2021/04/25 09:17:25;;;;;;;13.13;8.32;;;12.40;1.00;;;;;;5107549;28;20158;-74
2021/04/25 09:19:55;;;;;;;11.57;7.85;;;12.40;1.00;;;;;;5106686;28;20048;-75
2021/04/25 09:22:24;;;;;;;12.98;8.13;;;11.90;1.00;;;;;;5104746;28;20488;-73
2021/04/25 09:25:06;;;;;;;14.35;8.88;;;12.40;1.00;;;;;;5106031;28;20046;-74
2021/04/25 09:27:34;;;;;;;15.75;8.75;;;12.50;1.00;;;;;;5105748;28;20143;-74
2021/04/25 09:30:04;;;;;;;12.85;8.63;;;12.80;1.00;;;;;;5105787;28;20118;-75
2021/04/25 09:32:33;;;;;;;14.95;8.73;;;12.50;1.00;;;;;;5100785;28;20113;-75
2021/04/25 09:35:14;;;;;;;12.55;8.70;;;12.30;1.00;;;;;;5099297;28;20048;-75
2021/04/25 09:37:45;;;;;;;16.77;8.60;;;12.40;1.00;;;;;;5109076;28;20428;-74
2021/04/25 09:40:14;;;;;;;12.02;8.82;;;12.30;1.00;;;;;;5104373;28;20060;-75
2021/04/25 09:42:59;;;;;;;10.52;7.68;;;12.90;1.00;;;;;;5100810;28;20044;-75
2021/04/25 09:45:30;;;;;;;11.75;7.38;;;13.60;1.00;;;;;;5099335;28;20048;-74
2021/04/25 09:47:59;;;;;;;10.70;7.32;;;13.50;1.00;;;;;;5105447;28;20060;-74
2021/04/25 09:50:28;;;;;;;10.05;7.22;;;13.60;1.00;;;;;;5104190;28;20047;-75
2021/04/25 09:52:56;;;;;;;11.48;7.57;;;13.40;1.00;;;;;;5102035;28;20043;-74
2021/04/25 09:55:27;;;;;;;8.90;6.30;;;13.40;1.00;;;;;;5103548;28;20043;-74
2021/04/25 09:57:56;;;;;;;10.13;6.63;;;13.10;1.00;;;;;;5106497;28;20124;-74
2021/04/25 10:00:36;;;;;;;11.25;6.80;;;13.00;1.00;;;;;;5103631;28;20069;-74
2021/04/25 10:03:07;;;;;;;9.88;6.68;;;12.90;1.00;;;;;;5101639;28;20138;-74
2021/04/25 10:05:35;;;;;;;11.25;5.72;;;13.20;1.00;;;;;;5105369;28;20060;-74
2021/04/25 10:08:04;;;;;;;12.18;6.88;;;13.50;1.00;;;;;;5100989;28;20097;-75
2021/04/25 10:10:32;;;;;;;8.85;5.90;;;13.20;1.00;;;;;;5105954;28;20047;-75
2021/04/25 10:13:00;;;;;;;12.52;6.35;;;13.40;1.00;;;;;;5102504;28;20051;-75
2021/04/25 10:15:27;;;;;;;6.75;5.43;;;13.30;1.00;;;;;;5102069;28;20060;-75
2021/04/25 10:17:55;;;;;;;11.23;6.38;;;13.30;1.00;;;;;;5103612;28;20101;-74
2021/04/25 10:20:23;;;;;;;10.13;6.10;;;13.40;1.00;;;;;;5102228;28;21887;-74
2021/04/25 10:22:52;;;;;;;8.95;4.88;;;13.40;1.00;;;;;;5097276;28;20066;-75
2021/04/25 10:25:31;;;;;;;10.20;5.18;;;13.50;1.00;;;;;;5102425;28;20205;-74
2021/04/25 10:28:01;;;;;;;7.78;4.50;;;13.30;1.00;;;;;;5105344;28;20406;-75
2021/04/25 10:30:36;;;;;;;9.15;5.60;;;13.30;1.00;;;;;;5104069;28;20051;-74
2021/04/25 10:33:03;;;;;;;7.40;4.78;;;13.20;1.00;;;;;;5101410;28;21636;-73
2021/04/25 10:35:33;;;;;;;9.85;5.20;;;13.50;1.00;;;;;;5099770;28;20055;-69
2021/04/25 10:38:01;;;;;;;6.60;4.05;;;13.50;1.00;;;;;;5102375;28;20139;-69
2021/04/25 10:40:32;;;;;;;8.02;5.03;;;13.70;1.00;;;;;;5103100;28;20051;-69
2021/04/25 10:43:02;;;;;;;9.30;5.43;;;14.10;1.00;;;;;;5093572;28;20044;-68
2021/04/25 10:45:30;;;;;;;10.13;6.60;;;14.00;1.00;;;;;;5100703;28;20052;-69
2021/04/25 10:48:23;;;;;;;11.18;5.30;;;14.30;1.00;;;;;;5100340;28;20048;-69
2021/04/25 10:51:13;;;;;;;10.13;4.47;;;13.90;1.00;;;;;;5103253;28;20051;-69
2021/04/25 10:53:42;;;;;;;6.43;4.35;;;13.90;1.00;;;;;;5097763;28;20063;-71
2021/04/25 10:56:39;;;;;;;8.20;4.78;;;13.90;1.00;;;;;;5103414;28;20044;-70
2021/04/25 10:59:28;;;;;;;8.38;4.22;;;13.70;1.00;;;;;;5101280;28;20527;-69
2021/04/25 11:02:02;;;;;;;10.30;4.30;;;14.40;1.00;;;;;;5100734;28;20512;-69
2021/04/25 11:05:07;;;;;;;7.82;4.78;;;14.30;1.00;;;;;;5099802;28;20047;-69
2021/04/25 11:07:45;;;;;;;6.70;4.00;;;13.70;1.00;;;;;;5101708;28;20043;-68
2021/04/25 11:10:13;;;;;;;6.78;4.18;;;14.00;1.00;;;;;;5101554;28;20047;-69
2021/04/25 11:12:46;;;;;;;6.70;3.97;;;14.10;1.00;;;;;;5098324;28;20051;-69
2021/04/25 11:15:48;;;;;;;9.05;4.13;;;13.90;1.00;;;;;;5097811;28;20093;-69
2021/04/25 11:18:40;;;;;;;6.38;3.65;;;14.70;1.00;;;;;;5100119;28;20524;-68
2021/04/25 11:21:52;;;;;;;7.35;3.95;;;14.10;1.00;;;;;;5101599;28;20082;-69
2021/04/25 11:24:38;;;;;;;7.72;3.88;;;14.20;1.00;;;;;;5100138;28;20055;-68
2021/04/25 11:27:10;;;;;;;5.57;3.90;;;14.30;1.00;;;;;;5103002;28;20048;-68
2021/04/25 11:29:59;;;;;;;8.43;3.60;;;14.20;1.00;;;;;;5100595;28;20062;-69
2021/04/25 11:32:28;;;;;;;4.63;2.92;;;13.90;1.00;;;;;;5102252;27;20059;-70
2021/04/25 11:35:09;;;;;;;8.85;3.65;;;14.10;1.00;;;;;;5100708;28;20074;-68
2021/04/25 11:37:36;;;;;;;5.82;3.42;;;14.30;1.00;;;;;;5100500;28;21301;-68
2021/04/25 11:40:07;;;;;;;5.65;3.40;;;14.50;1.00;;;;;;5100115;28;20069;-68
2021/04/25 11:42:37;;;;;;;7.45;3.63;;;14.50;1.00;;;;;;5100375;28;20075;-68
2021/04/25 11:45:08;;;;;;;5.93;3.30;;;14.80;1.00;;;;;;5104060;28;20052;-68
2021/04/25 11:47:35;;;;;;;4.82;3.20;;;15.10;1.00;;;;;;5107289;28;20462;-70
2021/04/25 11:50:05;;;;;;;5.40;3.58;;;15.00;1.00;;;;;;5110260;28;20059;-69
2021/04/25 11:52:34;;;;;;;10.57;3.65;;;14.60;1.00;;;;;;5099208;28;20054;-68
2021/04/25 11:55:05;;;;;;;6.90;3.30;;;14.50;1.00;;;;;;5103209;28;20048;-69
2021/04/25 11:57:34;;;;;;;4.47;3.05;;;14.80;1.00;;;;;;5108920;28;20055;-69
2021/04/25 12:00:06;;;;;;;8.85;4.40;;;14.90;1.00;;;;;;5106130;27;20052;-70
2021/04/25 12:02:35;;;;;;;5.80;3.25;;;15.10;1.00;;;;;;5108315;28;20056;-70
2021/04/25 12:05:05;;;;;;;8.43;3.63;;;14.90;1.00;;;;;;5108556;28;20062;-67
2021/04/25 12:07:34;;;;;;;5.78;3.10;;;15.00;1.00;;;;;;5110624;28;20051;-68
2021/04/25 12:10:09;;;;;;;5.68;3.42;;;15.20;1.00;;;;;;5107987;28;20052;-67
2021/04/25 12:12:36;;;;;;;5.57;3.40;;;15.40;1.00;;;;;;5106492;27;20363;-69
2021/04/25 12:15:06;;;;;;;4.30;2.50;;;14.80;1.00;;;;;;5105618;28;20060;-68
2021/04/25 12:17:33;;;;;;;10.02;3.10;;;14.70;1.00;;;;;;5109259;28;20554;-68
2021/04/25 12:20:01;;;;;;;5.95;3.17;;;14.60;1.00;;;;;;5106847;28;20137;-69
2021/04/25 12:22:29;;;;;;;5.70;3.20;;;14.30;1.00;;;;;;5107211;28;20105;-68
2021/04/25 12:24:57;;;;;;;5.55;3.25;;;15.10;1.00;;;;;;5106793;28;20061;-69
2021/04/25 12:27:24;;;;;;;4.80;2.60;;;15.20;1.00;;;;;;5112065;27;20047;-67
2021/04/25 12:29:51;;;;;;;4.32;2.72;;;14.90;1.00;;;;;;5107734;28;20470;-66
2021/04/25 12:32:19;;;;;;;6.97;2.78;;;15.10;1.00;;;;;;5105161;28;20043;-68
2021/04/25 12:34:57;;;;;;;6.20;2.85;;;15.20;1.00;;;;;;5106743;28;20067;-72
2021/04/25 12:37:38;;;;;;;5.70;2.90;;;15.80;1.00;;;;;;5107012;28;20505;-69
2021/04/25 12:40:06;;;;;;;7.10;3.53;;;14.90;1.00;;;;;;5107933;28;20055;-67
2021/04/25 12:42:33;;;;;;;4.35;2.90;;;15.60;1.00;;;;;;5106160;28;20043;-69
2021/04/25 12:45:00;;;;;;;5.38;3.20;;;15.30;1.00;;;;;;5107843;28;20497;-69
2021/04/25 12:47:32;;;;;;;4.50;2.60;;;15.20;1.00;;;;;;5106829;28;20140;-69
2021/04/25 12:50:13;;;;;;;8.35;3.50;;;15.30;1.00;;;;;;5108998;28;20055;-69
2021/04/25 12:52:41;;;;;;;7.43;3.10;;;15.30;1.00;;;;;;5105479;28;20050;-68
2021/04/25 12:55:09;;;;;;;5.60;2.40;;;15.10;1.00;;;;;;5103761;28;20074;-68
2021/04/25 12:57:35;;;;;;;4.43;2.67;;;15.10;1.00;;;;;;5105740;27;20413;-66
2021/04/25 13:00:26;;;;;;;4.45;2.60;;;16.00;1.00;;;;;;5104477;28;20570;-68
2021/04/25 13:02:54;;;;;;;6.47;2.55;;;15.90;1.00;;;;;;5102820;28;20738;-70
2021/04/25 13:05:21;;;;;;;6.05;3.17;;;15.80;1.00;;;;;;5105051;28;20040;-69